sensor_id;sensor_type;location;lat;lon;timestamp;pressure;altitude;pressure_sealevel;temperature;humidity
64115;BME280;62188;35.640;139.748;2023-07-31T00:01:54;101304.58;;;31.92;42.69
64115;BME280;62188;35.640;139.748;2023-07-31T00:04:19;101301.62;;;31.28;43.18
64115;BME280;62188;35.640;139.748;2023-07-31T00:06:44;101300.40;;;31.31;43.41
64115;BME280;62188;35.640;139.748;2023-07-31T00:09:10;101301.16;;;31.33;43.27
64115;BME280;62188;35.640;139.748;2023-07-31T00:11:35;101302.76;;;31.18;43.31
64115;BME280;62188;35.640;139.748;2023-07-31T00:14:00;101305.55;;;31.76;43.00
64115;BME280;62188;35.640;139.748;2023-07-31T00:16:25;101306.92;;;31.84;42.53
64115;BME280;62188;35.640;139.748;2023-07-31T00:18:50;101298.67;;;32.07;42.34
64115;BME280;62188;35.640;139.748;2023-07-31T00:21:16;101294.46;;;32.13;41.69
64115;BME280;62188;35.640;139.748;2023-07-31T00:23:41;101293.69;;;31.90;41.00
64115;BME280;62188;35.640;139.748;2023-07-31T00:26:06;101289.48;;;32.23;40.73
64115;BME280;62188;35.640;139.748;2023-07-31T00:28:31;101283.93;;;31.43;41.60
64115;BME280;62188;35.640;139.748;2023-07-31T00:30:57;101282.79;;;32.06;40.74
64115;BME280;62188;35.640;139.748;2023-07-31T00:33:23;101281.10;;;32.02;43.14
64115;BME280;62188;35.640;139.748;2023-07-31T00:35:49;101270.63;;;31.95;44.86
64115;BME280;62188;35.640;139.748;2023-07-31T00:38:12;101265.34;;;31.93;44.86
64115;BME280;62188;35.640;139.748;2023-07-31T00:40:38;101266.72;;;32.09;42.94
64115;BME280;62188;35.640;139.748;2023-07-31T00:43:03;101270.24;;;32.30;42.57
64115;BME280;62188;35.640;139.748;2023-07-31T00:45:28;101267.91;;;32.21;41.81
64115;BME280;62188;35.640;139.748;2023-07-31T00:47:54;101267.78;;;32.21;41.73
64115;BME280;62188;35.640;139.748;2023-07-31T00:50:19;101264.45;;;32.27;43.24
64115;BME280;62188;35.640;139.748;2023-07-31T00:52:43;101260.71;;;31.94;42.11
64115;BME280;62188;35.640;139.748;2023-07-31T00:55:10;101257.59;;;31.54;42.54
64115;BME280;62188;35.640;139.748;2023-07-31T00:57:34;101254.07;;;31.82;42.35
64115;BME280;62188;35.640;139.748;2023-07-31T01:00:00;101253.56;;;31.81;42.40
64115;BME280;62188;35.640;139.748;2023-07-31T01:02:25;101259.48;;;31.87;42.75
64115;BME280;62188;35.640;139.748;2023-07-31T01:04:50;101248.33;;;31.36;42.75
64115;BME280;62188;35.640;139.748;2023-07-31T01:07:21;101252.10;;;31.70;42.55
64115;BME280;62188;35.640;139.748;2023-07-31T01:09:47;101254.98;;;32.21;42.20
64115;BME280;62188;35.640;139.748;2023-07-31T01:12:09;101257.60;;;32.30;42.09
64115;BME280;62188;35.640;139.748;2023-07-31T01:14:31;101259.02;;;32.41;41.96
64115;BME280;62188;35.640;139.748;2023-07-31T01:16:57;101259.71;;;32.69;42.01
64115;BME280;62188;35.640;139.748;2023-07-31T01:19:23;101257.09;;;31.90;42.69
64115;BME280;62188;35.640;139.748;2023-07-31T01:21:58;101257.65;;;32.35;42.27
64115;BME280;62188;35.640;139.748;2023-07-31T01:24:22;101257.03;;;32.67;41.81
64115;BME280;62188;35.640;139.748;2023-07-31T01:26:39;101254.13;;;32.17;42.06
64115;BME280;62188;35.640;139.748;2023-07-31T01:29:06;101249.36;;;32.35;41.42
64115;BME280;62188;35.640;139.748;2023-07-31T01:31:30;101251.52;;;32.38;41.53
64115;BME280;62188;35.640;139.748;2023-07-31T01:33:55;101251.41;;;32.71;41.39
64115;BME280;62188;35.640;139.748;2023-07-31T01:36:19;101249.69;;;32.46;41.53
64115;BME280;62188;35.640;139.748;2023-07-31T01:38:44;101254.22;;;32.37;41.43
64115;BME280;62188;35.640;139.748;2023-07-31T01:41:09;101250.27;;;32.89;41.12
64115;BME280;62188;35.640;139.748;2023-07-31T01:43:34;101252.12;;;32.19;40.96
64115;BME280;62188;35.640;139.748;2023-07-31T01:45:59;101243.52;;;32.55;40.72
64115;BME280;62188;35.640;139.748;2023-07-31T01:48:25;101241.99;;;32.35;40.53
64115;BME280;62188;35.640;139.748;2023-07-31T01:50:50;101242.65;;;32.18;41.16
64115;BME280;62188;35.640;139.748;2023-07-31T01:53:16;101237.25;;;32.13;41.00
64115;BME280;62188;35.640;139.748;2023-07-31T01:55:40;101232.71;;;32.26;41.08
64115;BME280;62188;35.640;139.748;2023-07-31T01:58:05;101223.64;;;32.46;40.27
64115;BME280;62188;35.640;139.748;2023-07-31T02:00:31;101231.15;;;32.74;40.06
64115;BME280;62188;35.640;139.748;2023-07-31T02:02:56;101232.41;;;32.57;39.92
64115;BME280;62188;35.640;139.748;2023-07-31T02:05:21;101232.90;;;32.48;39.78
64115;BME280;62188;35.640;139.748;2023-07-31T02:07:46;101226.52;;;32.90;39.73
64115;BME280;62188;35.640;139.748;2023-07-31T02:10:12;101220.24;;;32.80;40.10
64115;BME280;62188;35.640;139.748;2023-07-31T02:12:37;101216.84;;;33.11;39.88
64115;BME280;62188;35.640;139.748;2023-07-31T02:15:02;101216.52;;;32.73;40.20
64115;BME280;62188;35.640;139.748;2023-07-31T02:17:27;101208.84;;;33.05;39.22
64115;BME280;62188;35.640;139.748;2023-07-31T02:19:53;101207.01;;;33.18;39.03
64115;BME280;62188;35.640;139.748;2023-07-31T02:22:18;101206.52;;;33.13;39.44
64115;BME280;62188;35.640;139.748;2023-07-31T02:24:43;101207.59;;;33.54;38.76
64115;BME280;62188;35.640;139.748;2023-07-31T02:27:08;101207.79;;;32.84;39.06
64115;BME280;62188;35.640;139.748;2023-07-31T02:29:33;101207.93;;;32.97;39.21
64115;BME280;62188;35.640;139.748;2023-07-31T02:31:59;101192.88;;;33.05;39.55
64115;BME280;62188;35.640;139.748;2023-07-31T02:34:24;101189.55;;;33.17;39.51
64115;BME280;62188;35.640;139.748;2023-07-31T02:36:49;101195.60;;;32.88;40.37
64115;BME280;62188;35.640;139.748;2023-07-31T02:39:15;101189.39;;;32.31;40.30
64115;BME280;62188;35.640;139.748;2023-07-31T02:41:40;101187.43;;;32.43;40.92
64115;BME280;62188;35.640;139.748;2023-07-31T02:44:05;101189.46;;;32.90;40.54
64115;BME280;62188;35.640;139.748;2023-07-31T02:46:30;101184.84;;;32.60;40.45
64115;BME280;62188;35.640;139.748;2023-07-31T02:48:55;101183.34;;;32.33;40.95
64115;BME280;62188;35.640;139.748;2023-07-31T02:51:21;101182.85;;;32.49;40.94
64115;BME280;62188;35.640;139.748;2023-07-31T02:53:46;101181.58;;;32.49;41.26
64115;BME280;62188;35.640;139.748;2023-07-31T02:56:11;101180.89;;;32.77;40.96
64115;BME280;62188;35.640;139.748;2023-07-31T02:58:37;101177.10;;;33.10;40.69
64115;BME280;62188;35.640;139.748;2023-07-31T03:01:02;101173.35;;;33.14;40.38
64115;BME280;62188;35.640;139.748;2023-07-31T03:03:28;101171.55;;;33.13;40.08
64115;BME280;62188;35.640;139.748;2023-07-31T03:05:52;101172.07;;;33.30;39.48
64115;BME280;62188;35.640;139.748;2023-07-31T03:08:18;101171.99;;;33.20;39.61
64115;BME280;62188;35.640;139.748;2023-07-31T03:10:43;101169.43;;;32.76;39.81
64115;BME280;62188;35.640;139.748;2023-07-31T03:13:09;101180.23;;;32.61;40.26
64115;BME280;62188;35.640;139.748;2023-07-31T03:15:34;101174.00;;;31.73;41.67
64115;BME280;62188;35.640;139.748;2023-07-31T03:17:59;101177.00;;;31.93;41.47
64115;BME280;62188;35.640;139.748;2023-07-31T03:20:25;101179.35;;;31.65;42.22
64115;BME280;62188;35.640;139.748;2023-07-31T03:22:50;101179.26;;;31.85;42.06
64115;BME280;62188;35.640;139.748;2023-07-31T03:25:15;101179.87;;;32.21;42.00
64115;BME280;62188;35.640;139.748;2023-07-31T03:27:41;101181.50;;;32.02;41.52
64115;BME280;62188;35.640;139.748;2023-07-31T03:30:06;101171.23;;;32.17;41.75
64115;BME280;62188;35.640;139.748;2023-07-31T03:32:31;101172.06;;;32.45;40.95
64115;BME280;62188;35.640;139.748;2023-07-31T03:34:56;101177.44;;;32.67;40.60
64115;BME280;62188;35.640;139.748;2023-07-31T03:37:21;101168.00;;;32.64;39.76
64115;BME280;62188;35.640;139.748;2023-07-31T03:39:46;101160.33;;;32.98;39.02
64115;BME280;62188;35.640;139.748;2023-07-31T03:42:11;101165.38;;;32.44;39.50
64115;BME280;62188;35.640;139.748;2023-07-31T03:44:37;101160.77;;;32.11;40.56
64115;BME280;62188;35.640;139.748;2023-07-31T03:47:02;101161.99;;;32.27;40.54
64115;BME280;62188;35.640;139.748;2023-07-31T03:49:27;101161.62;;;32.03;40.78
64115;BME280;62188;35.640;139.748;2023-07-31T03:51:53;101160.08;;;32.30;40.15
64115;BME280;62188;35.640;139.748;2023-07-31T03:54:18;101151.51;;;31.45;41.18
64115;BME280;62188;35.640;139.748;2023-07-31T03:56:43;101149.35;;;32.06;40.58
64115;BME280;62188;35.640;139.748;2023-07-31T03:59:08;101141.49;;;31.88;41.01
64115;BME280;62188;35.640;139.748;2023-07-31T04:01:33;101136.73;;;31.93;40.97
64115;BME280;62188;35.640;139.748;2023-07-31T04:03:59;101137.74;;;32.21;40.92
64115;BME280;62188;35.640;139.748;2023-07-31T04:06:24;101138.18;;;32.67;40.08
64115;BME280;62188;35.640;139.748;2023-07-31T04:08:49;101131.15;;;32.23;40.39
64115;BME280;62188;35.640;139.748;2023-07-31T04:11:14;101132.84;;;32.71;40.15
64115;BME280;62188;35.640;139.748;2023-07-31T04:13:40;101131.90;;;32.46;38.70
64115;BME280;62188;35.640;139.748;2023-07-31T04:16:05;101125.41;;;32.92;38.54
64115;BME280;62188;35.640;139.748;2023-07-31T04:18:31;101125.09;;;32.92;38.35
64115;BME280;62188;35.640;139.748;2023-07-31T04:20:55;101124.91;;;33.19;37.56
64115;BME280;62188;35.640;139.748;2023-07-31T04:23:21;101123.81;;;33.20;37.42
64115;BME280;62188;35.640;139.748;2023-07-31T04:25:46;101129.10;;;33.46;37.23
64115;BME280;62188;35.640;139.748;2023-07-31T04:28:11;101131.99;;;32.68;37.15
64115;BME280;62188;35.640;139.748;2023-07-31T04:30:37;101132.00;;;33.14;36.80
64115;BME280;62188;35.640;139.748;2023-07-31T04:33:02;101136.17;;;33.24;36.59
64115;BME280;62188;35.640;139.748;2023-07-31T04:35:27;101143.87;;;32.34;37.22
64115;BME280;62188;35.640;139.748;2023-07-31T04:37:52;101135.44;;;32.75;37.14
64115;BME280;62188;35.640;139.748;2023-07-31T04:40:18;101129.19;;;32.58;36.75
64115;BME280;62188;35.640;139.748;2023-07-31T04:42:43;101124.76;;;32.71;36.85
64115;BME280;62188;35.640;139.748;2023-07-31T04:45:10;101123.35;;;33.01;36.53
64115;BME280;62188;35.640;139.748;2023-07-31T04:47:33;101126.24;;;32.41;37.06
64115;BME280;62188;35.640;139.748;2023-07-31T04:49:59;101118.84;;;32.14;37.36
64115;BME280;62188;35.640;139.748;2023-07-31T04:52:24;101110.67;;;32.35;37.62
64115;BME280;62188;35.640;139.748;2023-07-31T04:54:49;101112.22;;;32.05;37.66
64115;BME280;62188;35.640;139.748;2023-07-31T04:57:14;101098.22;;;32.47;38.04
64115;BME280;62188;35.640;139.748;2023-07-31T04:59:39;101091.77;;;32.33;38.34
64115;BME280;62188;35.640;139.748;2023-07-31T05:02:06;101094.51;;;32.36;39.10
64115;BME280;62188;35.640;139.748;2023-07-31T05:04:30;101087.54;;;32.29;39.69
64115;BME280;62188;35.640;139.748;2023-07-31T05:06:55;101085.38;;;32.72;39.81
64115;BME280;62188;35.640;139.748;2023-07-31T05:09:20;101076.84;;;32.46;39.75
64115;BME280;62188;35.640;139.748;2023-07-31T05:11:46;101065.82;;;32.49;40.10
64115;BME280;62188;35.640;139.748;2023-07-31T05:14:10;101070.45;;;32.62;41.00
64115;BME280;62188;35.640;139.748;2023-07-31T05:16:36;101066.81;;;32.10;41.31
64115;BME280;62188;35.640;139.748;2023-07-31T05:19:01;101075.38;;;31.42;41.85
64115;BME280;62188;35.640;139.748;2023-07-31T05:21:26;101054.80;;;30.88;43.09
64115;BME280;62188;35.640;139.748;2023-07-31T05:23:51;101060.68;;;31.42;42.76
64115;BME280;62188;35.640;139.748;2023-07-31T05:26:17;101052.47;;;31.00;43.64
64115;BME280;62188;35.640;139.748;2023-07-31T05:28:42;101050.26;;;31.09;44.29
64115;BME280;62188;35.640;139.748;2023-07-31T05:31:07;101054.79;;;30.92;44.30
64115;BME280;62188;35.640;139.748;2023-07-31T05:33:33;101050.69;;;30.18;45.33
64115;BME280;62188;35.640;139.748;2023-07-31T05:35:58;101055.39;;;30.92;45.39
64115;BME280;62188;35.640;139.748;2023-07-31T05:38:23;101055.51;;;31.25;45.17
64115;BME280;62188;35.640;139.748;2023-07-31T05:40:48;101055.36;;;30.93;45.52
64115;BME280;62188;35.640;139.748;2023-07-31T05:43:14;101060.14;;;31.38;45.26
64115;BME280;62188;35.640;139.748;2023-07-31T05:45:39;101062.12;;;31.74;44.27
64115;BME280;62188;35.640;139.748;2023-07-31T05:48:04;101067.52;;;30.96;44.91
64115;BME280;62188;35.640;139.748;2023-07-31T05:50:30;101069.79;;;31.33;43.88
64115;BME280;62188;35.640;139.748;2023-07-31T05:52:54;101076.23;;;31.49;43.58
64115;BME280;62188;35.640;139.748;2023-07-31T05:55:20;101064.54;;;31.55;42.90
64115;BME280;62188;35.640;139.748;2023-07-31T05:57:45;101074.39;;;31.65;43.26
64115;BME280;62188;35.640;139.748;2023-07-31T06:00:11;101060.66;;;31.29;43.05
64115;BME280;62188;35.640;139.748;2023-07-31T06:02:35;101055.95;;;31.04;43.21
64115;BME280;62188;35.640;139.748;2023-07-31T06:05:01;101055.81;;;31.15;42.91
64115;BME280;62188;35.640;139.748;2023-07-31T06:07:26;101055.46;;;31.11;43.13
64115;BME280;62188;35.640;139.748;2023-07-31T06:09:51;101052.80;;;31.23;43.40
64115;BME280;62188;35.640;139.748;2023-07-31T06:12:16;101056.14;;;31.35;43.82
64115;BME280;62188;35.640;139.748;2023-07-31T06:14:41;101055.09;;;31.43;43.69
64115;BME280;62188;35.640;139.748;2023-07-31T06:17:07;101054.60;;;31.75;43.56
64115;BME280;62188;35.640;139.748;2023-07-31T06:19:33;101067.37;;;31.51;43.46
64115;BME280;62188;35.640;139.748;2023-07-31T06:21:59;101062.85;;;31.52;44.00
64115;BME280;62188;35.640;139.748;2023-07-31T06:24:23;101051.06;;;31.24;44.71
64115;BME280;62188;35.640;139.748;2023-07-31T06:26:48;101049.60;;;31.17;44.60
64115;BME280;62188;35.640;139.748;2023-07-31T06:29:13;101047.79;;;31.37;45.14
64115;BME280;62188;35.640;139.748;2023-07-31T06:31:38;101049.57;;;31.44;44.66
64115;BME280;62188;35.640;139.748;2023-07-31T06:34:04;101049.07;;;31.35;45.46
64115;BME280;62188;35.640;139.748;2023-07-31T06:36:29;101040.37;;;30.63;47.05
64115;BME280;62188;35.640;139.748;2023-07-31T06:38:54;101037.24;;;30.57;47.79
64115;BME280;62188;35.640;139.748;2023-07-31T06:41:19;101034.84;;;30.83;47.13
64115;BME280;62188;35.640;139.748;2023-07-31T06:43:44;101032.43;;;31.02;47.26
64115;BME280;62188;35.640;139.748;2023-07-31T06:46:10;101033.96;;;30.87;48.10
64115;BME280;62188;35.640;139.748;2023-07-31T06:48:35;101037.64;;;31.30;47.61
64115;BME280;62188;35.640;139.748;2023-07-31T06:51:00;101045.50;;;31.07;47.57
64115;BME280;62188;35.640;139.748;2023-07-31T06:53:25;101045.34;;;31.02;47.78
64115;BME280;62188;35.640;139.748;2023-07-31T06:55:51;101045.85;;;30.84;48.03
64115;BME280;62188;35.640;139.748;2023-07-31T06:58:15;101046.32;;;30.76;47.83
64115;BME280;62188;35.640;139.748;2023-07-31T07:00:41;101046.98;;;30.31;49.34
64115;BME280;62188;35.640;139.748;2023-07-31T07:03:07;101055.50;;;30.47;49.18
64115;BME280;62188;35.640;139.748;2023-07-31T07:05:37;101054.31;;;30.23;49.29
64115;BME280;62188;35.640;139.748;2023-07-31T07:07:57;101060.22;;;30.01;50.07
64115;BME280;62188;35.640;139.748;2023-07-31T07:10:23;101074.11;;;30.54;49.08
64115;BME280;62188;35.640;139.748;2023-07-31T07:12:47;101070.86;;;30.06;49.59
64115;BME280;62188;35.640;139.748;2023-07-31T07:15:13;101067.63;;;30.33;49.17
64115;BME280;62188;35.640;139.748;2023-07-31T07:17:38;101066.07;;;29.74;49.93
64115;BME280;62188;35.640;139.748;2023-07-31T07:20:04;101059.28;;;30.38;49.22
64115;BME280;62188;35.640;139.748;2023-07-31T07:22:28;101061.39;;;30.33;48.68
64115;BME280;62188;35.640;139.748;2023-07-31T07:24:54;101054.94;;;30.58;48.41
64115;BME280;62188;35.640;139.748;2023-07-31T07:27:19;101062.93;;;30.73;47.74
64115;BME280;62188;35.640;139.748;2023-07-31T07:29:45;101060.42;;;30.36;48.15
64115;BME280;62188;35.640;139.748;2023-07-31T07:32:10;101059.84;;;30.76;47.21
64115;BME280;62188;35.640;139.748;2023-07-31T07:34:36;101059.69;;;30.99;47.03
64115;BME280;62188;35.640;139.748;2023-07-31T07:37:01;101063.18;;;29.88;48.27
64115;BME280;62188;35.640;139.748;2023-07-31T07:39:25;101053.96;;;29.96;48.60
64115;BME280;62188;35.640;139.748;2023-07-31T07:41:51;101053.55;;;30.40;48.61
64115;BME280;62188;35.640;139.748;2023-07-31T07:44:17;101056.02;;;30.40;48.91
64115;BME280;62188;35.640;139.748;2023-07-31T07:46:42;101054.56;;;29.95;49.71
64115;BME280;62188;35.640;139.748;2023-07-31T07:49:07;101059.97;;;30.47;49.54
64115;BME280;62188;35.640;139.748;2023-07-31T07:51:32;101047.99;;;30.30;49.54
64115;BME280;62188;35.640;139.748;2023-07-31T07:53:57;101046.16;;;29.74;50.00
64115;BME280;62188;35.640;139.748;2023-07-31T07:56:23;101040.18;;;29.63;50.64
64115;BME280;62188;35.640;139.748;2023-07-31T07:58:50;101042.65;;;30.20;49.71
64115;BME280;62188;35.640;139.748;2023-07-31T08:01:13;101042.84;;;30.08;49.30
64115;BME280;62188;35.640;139.748;2023-07-31T08:03:39;101042.59;;;30.69;47.87
64115;BME280;62188;35.640;139.748;2023-07-31T08:06:04;101043.07;;;30.47;47.81
64115;BME280;62188;35.640;139.748;2023-07-31T08:08:30;101048.39;;;30.09;48.68
64115;BME280;62188;35.640;139.748;2023-07-31T08:10:55;101048.79;;;30.52;48.49
64115;BME280;62188;35.640;139.748;2023-07-31T08:13:21;101055.14;;;30.65;48.09
64115;BME280;62188;35.640;139.748;2023-07-31T08:15:45;101063.32;;;30.08;48.02
64115;BME280;62188;35.640;139.748;2023-07-31T08:18:12;101069.24;;;29.42;49.55
64115;BME280;62188;35.640;139.748;2023-07-31T08:20:36;101067.28;;;29.14;50.04
64115;BME280;62188;35.640;139.748;2023-07-31T08:23:01;101065.72;;;29.10;50.41
64115;BME280;62188;35.640;139.748;2023-07-31T08:25:27;101060.70;;;30.35;49.54
64115;BME280;62188;35.640;139.748;2023-07-31T08:27:52;101063.16;;;30.22;49.21
64115;BME280;62188;35.640;139.748;2023-07-31T08:30:18;101065.37;;;30.26;49.65
64115;BME280;62188;35.640;139.748;2023-07-31T08:32:42;101063.21;;;30.17;48.95
64115;BME280;62188;35.640;139.748;2023-07-31T08:35:08;101062.98;;;30.39;48.84
64115;BME280;62188;35.640;139.748;2023-07-31T08:37:32;101056.00;;;30.32;49.22
64115;BME280;62188;35.640;139.748;2023-07-31T08:39:58;101054.51;;;30.46;48.83
64115;BME280;62188;35.640;139.748;2023-07-31T08:42:24;101049.47;;;30.63;48.84
64115;BME280;62188;35.640;139.748;2023-07-31T08:44:48;101054.91;;;30.43;49.29
64115;BME280;62188;35.640;139.748;2023-07-31T08:47:14;101080.28;;;29.26;50.03
64115;BME280;62188;35.640;139.748;2023-07-31T08:49:44;101063.81;;;29.62;49.99
64115;BME280;62188;35.640;139.748;2023-07-31T08:52:06;101063.88;;;29.46;50.01
64115;BME280;62188;35.640;139.748;2023-07-31T08:54:30;101064.21;;;30.46;49.75
64115;BME280;62188;35.640;139.748;2023-07-31T08:56:55;101068.31;;;29.84;50.39
64115;BME280;62188;35.640;139.748;2023-07-31T08:59:21;101072.78;;;29.71;50.06
64115;BME280;62188;35.640;139.748;2023-07-31T09:01:49;101074.73;;;29.81;50.14
64115;BME280;62188;35.640;139.748;2023-07-31T09:04:11;101063.98;;;29.84;50.11
64115;BME280;62188;35.640;139.748;2023-07-31T09:06:36;101070.76;;;30.20;49.47
64115;BME280;62188;35.640;139.748;2023-07-31T09:09:01;101066.40;;;29.68;49.66
64115;BME280;62188;35.640;139.748;2023-07-31T09:11:27;101067.98;;;30.18;48.99
64115;BME280;62188;35.640;139.748;2023-07-31T09:13:52;101069.40;;;29.82;49.83
64115;BME280;62188;35.640;139.748;2023-07-31T09:16:17;101074.76;;;29.67;49.54
64115;BME280;62188;35.640;139.748;2023-07-31T09:18:53;101061.66;;;29.89;49.27
64115;BME280;62188;35.640;139.748;2023-07-31T09:21:07;101067.57;;;30.16;49.26
64115;BME280;62188;35.640;139.748;2023-07-31T09:23:42;101074.47;;;29.30;50.41
64115;BME280;62188;35.640;139.748;2023-07-31T09:25:58;101068.62;;;29.39;50.31
64115;BME280;62188;35.640;139.748;2023-07-31T09:28:31;101067.50;;;30.03;49.74
64115;BME280;62188;35.640;139.748;2023-07-31T09:30:50;101066.73;;;29.73;49.86
64115;BME280;62188;35.640;139.748;2023-07-31T09:33:14;101068.36;;;29.49;50.34
64115;BME280;62188;35.640;139.748;2023-07-31T09:35:39;101065.91;;;29.78;50.20
64115;BME280;62188;35.640;139.748;2023-07-31T09:38:07;101069.82;;;29.28;50.77
64115;BME280;62188;35.640;139.748;2023-07-31T09:40:31;101071.81;;;29.25;50.79
64115;BME280;62188;35.640;139.748;2023-07-31T09:42:56;101082.74;;;29.49;50.24
64115;BME280;62188;35.640;139.748;2023-07-31T09:45:20;101087.86;;;28.93;51.14
64115;BME280;62188;35.640;139.748;2023-07-31T09:47:48;101089.79;;;29.50;50.27
64115;BME280;62188;35.640;139.748;2023-07-31T09:50:10;101088.49;;;29.87;50.31
64115;BME280;62188;35.640;139.748;2023-07-31T09:52:39;101094.35;;;30.14;49.48
64115;BME280;62188;35.640;139.748;2023-07-31T09:55:01;101095.94;;;29.81;49.77
64115;BME280;62188;35.640;139.748;2023-07-31T09:57:27;101100.91;;;29.80;49.97
64115;BME280;62188;35.640;139.748;2023-07-31T09:59:54;101102.65;;;29.51;50.36
64115;BME280;62188;35.640;139.748;2023-07-31T10:02:22;101108.47;;;29.94;50.13
64115;BME280;62188;35.640;139.748;2023-07-31T10:04:44;101099.62;;;29.87;50.12
64115;BME280;62188;35.640;139.748;2023-07-31T10:07:08;101096.81;;;29.90;49.64
64115;BME280;62188;35.640;139.748;2023-07-31T10:09:33;101102.55;;;29.69;49.64
64115;BME280;62188;35.640;139.748;2023-07-31T10:12:02;101110.85;;;29.74;50.08
64115;BME280;62188;35.640;139.748;2023-07-31T10:14:25;101109.75;;;30.04;49.68
64115;BME280;62188;35.640;139.748;2023-07-31T10:16:48;101110.94;;;30.15;49.44
64115;BME280;62188;35.640;139.748;2023-07-31T10:19:14;101115.10;;;30.18;49.66
64115;BME280;62188;35.640;139.748;2023-07-31T10:21:39;101122.81;;;29.46;49.83
64115;BME280;62188;35.640;139.748;2023-07-31T10:24:05;101131.21;;;29.57;49.99
64115;BME280;62188;35.640;139.748;2023-07-31T10:26:31;101134.44;;;29.76;50.42
64115;BME280;62188;35.640;139.748;2023-07-31T10:28:55;101144.10;;;29.29;50.40
64115;BME280;62188;35.640;139.748;2023-07-31T10:31:20;101141.17;;;29.72;50.28
64115;BME280;62188;35.640;139.748;2023-07-31T10:33:45;101153.94;;;29.51;50.26
64115;BME280;62188;35.640;139.748;2023-07-31T10:36:14;101161.53;;;29.43;50.93
64115;BME280;62188;35.640;139.748;2023-07-31T10:38:36;101163.31;;;29.33;51.10
64115;BME280;62188;35.640;139.748;2023-07-31T10:41:08;101157.61;;;29.89;49.87
64115;BME280;62188;35.640;139.748;2023-07-31T10:43:26;101157.28;;;29.76;50.28
64115;BME280;62188;35.640;139.748;2023-07-31T10:45:52;101157.19;;;29.61;50.04
64115;BME280;62188;35.640;139.748;2023-07-31T10:48:18;101152.72;;;29.71;50.74
64115;BME280;62188;35.640;139.748;2023-07-31T10:50:49;101156.24;;;29.36;51.36
64115;BME280;62188;35.640;139.748;2023-07-31T10:53:13;101154.53;;;29.57;51.53
64115;BME280;62188;35.640;139.748;2023-07-31T10:55:38;101161.16;;;29.35;51.43
64115;BME280;62188;35.640;139.748;2023-07-31T11:00:27;101165.32;;;28.91;52.98
64115;BME280;62188;35.640;139.748;2023-07-31T11:02:58;101169.73;;;29.30;52.27
64115;BME280;62188;35.640;139.748;2023-07-31T11:05:14;101164.89;;;29.52;52.59
64115;BME280;62188;35.640;139.748;2023-07-31T11:07:48;101164.91;;;30.05;52.04
64115;BME280;62188;35.640;139.748;2023-07-31T11:10:05;101160.90;;;29.44;52.00
64115;BME280;62188;35.640;139.748;2023-07-31T11:12:31;101157.42;;;28.69;53.26
64115;BME280;62188;35.640;139.748;2023-07-31T11:14:58;101159.63;;;29.01;53.13
64115;BME280;62188;35.640;139.748;2023-07-31T11:17:21;101163.99;;;28.89;53.10
64115;BME280;62188;35.640;139.748;2023-07-31T11:19:45;101162.83;;;29.13;53.68
64115;BME280;62188;35.640;139.748;2023-07-31T11:22:12;101161.54;;;29.17;52.53
64115;BME280;62188;35.640;139.748;2023-07-31T11:24:37;101166.21;;;29.73;52.31
64115;BME280;62188;35.640;139.748;2023-07-31T11:27:07;101172.36;;;29.62;51.91
64115;BME280;62188;35.640;139.748;2023-07-31T11:29:29;101178.33;;;29.44;52.29
64115;BME280;62188;35.640;139.748;2023-07-31T11:31:54;101176.18;;;29.62;51.88
64115;BME280;62188;35.640;139.748;2023-07-31T11:34:20;101177.34;;;29.32;52.58
64115;BME280;62188;35.640;139.748;2023-07-31T11:36:54;101175.57;;;29.21;53.00
64115;BME280;62188;35.640;139.748;2023-07-31T11:39:11;101171.75;;;29.38;52.38
64115;BME280;62188;35.640;139.748;2023-07-31T11:41:36;101172.86;;;29.59;52.15
64115;BME280;62188;35.640;139.748;2023-07-31T11:44:02;101176.93;;;29.72;51.82
64115;BME280;62188;35.640;139.748;2023-07-31T11:46:27;101176.08;;;29.57;52.03
64115;BME280;62188;35.640;139.748;2023-07-31T11:48:55;101180.03;;;29.84;51.66
64115;BME280;62188;35.640;139.748;2023-07-31T11:51:18;101182.35;;;29.58;52.04
64115;BME280;62188;35.640;139.748;2023-07-31T11:53:45;101181.83;;;29.71;51.96
64115;BME280;62188;35.640;139.748;2023-07-31T11:56:09;101184.56;;;29.24;52.45
64115;BME280;62188;35.640;139.748;2023-07-31T11:58:35;101186.40;;;29.46;52.50
64115;BME280;62188;35.640;139.748;2023-07-31T12:00:59;101191.98;;;29.14;52.55
64115;BME280;62188;35.640;139.748;2023-07-31T12:03:24;101192.83;;;29.58;51.92
64115;BME280;62188;35.640;139.748;2023-07-31T12:05:50;101187.76;;;29.66;52.23
64115;BME280;62188;35.640;139.748;2023-07-31T12:08:15;101189.00;;;29.66;52.16
64115;BME280;62188;35.640;139.748;2023-07-31T12:10:41;101185.28;;;29.04;53.39
64115;BME280;62188;35.640;139.748;2023-07-31T12:13:07;101194.46;;;29.67;52.18
64115;BME280;62188;35.640;139.748;2023-07-31T12:15:38;101198.81;;;29.84;52.04
64115;BME280;62188;35.640;139.748;2023-07-31T12:17:56;101199.57;;;29.16;51.84
64115;BME280;62188;35.640;139.748;2023-07-31T12:20:22;101202.77;;;29.91;52.85
64115;BME280;62188;35.640;139.748;2023-07-31T12:22:47;101201.10;;;29.99;51.18